createdAt,value
2023-04-14T00:00:51.492Z,15.32
2023-04-14T00:03:19.847Z,15.30
2023-04-14T00:05:47.870Z,15.43
2023-04-14T00:08:15.840Z,15.78
2023-04-14T00:10:43.859Z,15.47
2023-04-14T00:13:11.748Z,13.96
2023-04-14T00:15:42.726Z,13.08
2023-04-14T00:18:10.766Z,13.69
2023-04-14T00:20:39.665Z,14.58
2023-04-14T00:23:07.657Z,14.85
2023-04-14T00:25:35.668Z,15.19
2023-04-14T00:28:03.703Z,15.33
2023-04-14T00:30:31.746Z,15.33
2023-04-14T00:32:59.672Z,15.35
2023-04-14T00:35:27.619Z,15.57
2023-04-14T00:37:57.164Z,15.72
2023-04-14T00:40:25.275Z,15.58
2023-04-14T00:42:53.231Z,14.33
2023-04-14T00:45:21.422Z,13.40
2023-04-14T00:47:50.926Z,14.12
2023-04-14T00:50:21.060Z,14.98
2023-04-14T00:52:51.218Z,15.44
2023-04-14T00:55:22.658Z,15.64
2023-04-14T00:57:51.076Z,15.82
2023-04-14T01:00:19.829Z,16.09
2023-04-14T01:02:48.106Z,16.06
2023-04-14T01:05:16.742Z,14.80
2023-04-14T01:07:45.710Z,13.57
2023-04-14T01:10:13.950Z,13.08
2023-04-14T01:12:57.158Z,14.12
2023-04-14T01:16:00.394Z,15.21
2023-04-14T01:18:51.995Z,15.85
2023-04-14T01:21:58.668Z,16.03
2023-04-14T01:25:00.511Z,15.49
2023-04-14T01:27:31.374Z,13.79
2023-04-14T01:30:36.851Z,13.12
2023-04-14T01:33:07.110Z,14.29
2023-04-14T01:35:38.688Z,14.95
2023-04-14T01:38:14.942Z,15.30
2023-04-14T01:40:49.661Z,15.58
2023-04-14T01:43:51.219Z,15.75
2023-04-14T01:46:21.534Z,15.86
2023-04-14T01:48:50.702Z,15.89
2023-04-14T01:51:21.480Z,15.78
2023-04-14T01:53:51.030Z,14.61
2023-04-14T01:56:21.000Z,13.36
2023-04-14T01:58:49.531Z,12.78
2023-04-14T02:01:18.474Z,13.52
2023-04-14T02:03:52.296Z,14.29
2023-04-14T02:06:32.220Z,14.87
2023-04-14T02:09:05.778Z,15.21
2023-04-14T02:11:35.889Z,15.50
2023-04-14T02:14:06.007Z,15.70
2023-04-14T02:16:35.467Z,15.77
2023-04-14T02:19:05.555Z,15.49
2023-04-14T02:21:35.624Z,14.24
2023-04-14T02:24:03.854Z,13.36
2023-04-14T02:26:39.159Z,14.06
2023-04-14T02:29:15.725Z,14.90
2023-04-14T02:31:49.877Z,15.35
2023-04-14T02:34:23.739Z,15.51
2023-04-14T02:36:57.997Z,15.63
2023-04-14T02:39:59.292Z,15.69
2023-04-14T02:42:30.419Z,15.69
2023-04-14T02:45:05.313Z,15.65
2023-04-14T02:47:37.373Z,15.65
2023-04-14T02:50:10.056Z,15.69
2023-04-14T02:52:40.723Z,15.65
2023-04-14T02:55:10.577Z,14.54
2023-04-14T02:57:39.748Z,13.34
2023-04-14T03:00:09.348Z,12.83
2023-04-14T03:02:40.250Z,13.81
2023-04-14T03:05:17.038Z,14.69
2023-04-14T03:07:55.156Z,15.14
2023-04-14T03:10:24.750Z,15.25
2023-04-14T03:13:41.699Z,15.39
2023-04-14T03:16:10.673Z,15.61
2023-04-14T03:18:40.419Z,15.42
2023-04-14T03:21:08.413Z,14.23
2023-04-14T03:23:38.222Z,13.35
2023-04-14T03:26:09.969Z,13.96
2023-04-14T03:28:42.312Z,14.63
2023-04-14T03:31:11.758Z,15.15
2023-04-14T03:33:57.902Z,15.49
2023-04-14T03:41:10.121Z,13.41
2023-04-14T03:43:58.134Z,12.88
2023-04-14T03:46:29.240Z,14.06
2023-04-14T03:52:58.706Z,15.13
2023-04-14T03:58:44.211Z,14.76
2023-04-14T04:01:14.702Z,13.46
2023-04-14T04:03:44.327Z,12.40
2023-04-14T04:06:12.903Z,12.01
2023-04-14T04:08:41.787Z,13.10
2023-04-14T04:11:12.140Z,14.10
2023-04-14T04:13:42.094Z,14.62
2023-04-14T04:16:11.722Z,14.83
2023-04-14T04:18:43.079Z,14.63
2023-04-14T04:21:11.848Z,13.35
2023-04-14T04:23:53.445Z,12.45
2023-04-14T04:26:25.302Z,13.16
2023-04-14T04:28:58.340Z,13.88
2023-04-14T04:31:28.518Z,14.31
2023-04-14T04:33:58.330Z,14.56
2023-04-14T04:36:27.970Z,14.87
2023-04-14T04:38:57.113Z,15.22
2023-04-14T04:41:30.522Z,15.43
2023-04-14T04:44:01.801Z,15.21
2023-04-14T04:46:44.359Z,13.83
2023-04-14T04:49:12.388Z,12.91
2023-04-14T04:51:40.530Z,13.71
2023-04-14T04:54:08.533Z,14.56
2023-04-14T04:56:36.729Z,15.01
2023-04-14T04:59:05.059Z,15.28
2023-04-14T05:01:33.177Z,15.42
2023-04-14T05:04:01.520Z,15.66
2023-04-14T05:06:29.716Z,15.49
2023-04-14T05:08:57.709Z,14.20
2023-04-14T05:11:27.160Z,13.29
2023-04-14T05:13:55.091Z,14.08
2023-04-14T05:16:23.266Z,14.83
2023-04-14T05:18:52.321Z,15.33
2023-04-14T05:21:25.780Z,15.62
2023-04-14T05:23:53.815Z,15.16
2023-04-14T05:28:53.578Z,13.07
2023-04-14T05:31:22.382Z,14.15
2023-04-14T05:33:50.389Z,15.19
2023-04-14T05:36:18.458Z,15.52
2023-04-14T05:38:46.540Z,15.54
2023-04-14T05:41:14.520Z,15.57
2023-04-14T05:43:42.420Z,15.76
2023-04-14T05:46:17.809Z,15.86
2023-04-14T05:48:45.850Z,16.02
2023-04-14T05:51:13.758Z,15.37
2023-04-14T05:53:41.610Z,13.98
2023-04-14T05:56:11.668Z,13.35
2023-04-14T05:58:45.253Z,14.37
2023-04-14T06:01:18.728Z,15.49
2023-04-14T06:03:46.935Z,16.20
2023-04-14T06:06:15.114Z,16.27
2023-04-14T06:08:43.111Z,15.21
2023-04-14T06:11:11.350Z,14.13
2023-04-14T06:13:39.293Z,13.77
2023-04-14T06:16:07.703Z,15.00
2023-04-14T06:18:35.792Z,16.07
2023-04-14T06:21:03.835Z,16.73
2023-04-14T06:23:32.409Z,16.99
2023-04-14T06:26:00.428Z,16.00
2023-04-14T06:28:28.600Z,14.96
2023-04-14T06:30:56.671Z,15.24
2023-04-14T06:33:24.693Z,16.46
2023-04-14T06:35:52.565Z,16.95
2023-04-14T06:38:20.755Z,16.04
2023-04-14T06:40:48.912Z,15.01
2023-04-14T06:43:18.347Z,14.62
2023-04-14T06:45:46.468Z,15.74
2023-04-14T06:48:15.694Z,16.69
2023-04-14T06:50:44.530Z,16.78
2023-04-14T06:53:12.681Z,15.69
2023-04-14T06:55:42.607Z,14.74
2023-04-14T06:58:10.647Z,14.58
2023-04-14T07:00:38.640Z,15.81
2023-04-14T07:03:07.147Z,16.50
2023-04-14T07:05:35.231Z,15.70
2023-04-14T07:08:03.251Z,14.69
2023-04-14T07:10:31.162Z,14.38
2023-04-14T07:12:59.199Z,15.51
2023-04-14T07:15:27.202Z,16.31
2023-04-14T07:17:56.342Z,15.61
2023-04-14T07:20:26.134Z,14.70
2023-04-14T07:22:54.156Z,14.04
2023-04-14T07:25:52.720Z,14.00
2023-04-14T07:28:22.233Z,15.70
2023-04-14T07:30:51.236Z,16.40
2023-04-14T07:33:20.081Z,15.68
2023-04-14T07:36:01.245Z,14.92
2023-04-14T07:38:33.102Z,14.28
2023-04-14T07:41:04.601Z,13.86
2023-04-14T07:43:35.797Z,14.01
2023-04-14T07:46:05.751Z,15.58
2023-04-14T07:48:36.262Z,16.49
2023-04-14T07:51:05.280Z,15.93
2023-04-14T07:53:34.084Z,15.29
2023-04-14T07:56:02.053Z,14.85
2023-04-14T07:58:30.250Z,14.53
2023-04-14T08:00:58.642Z,14.28
2023-04-14T08:03:26.901Z,14.12
2023-04-14T08:05:55.496Z,13.98
2023-04-14T08:08:24.356Z,13.88
2023-04-14T08:10:52.344Z,13.78
2023-04-14T08:13:20.387Z,13.69
2023-04-14T08:15:48.405Z,14.50
2023-04-14T08:18:16.476Z,15.84
2023-04-14T08:20:44.600Z,15.61
2023-04-14T08:23:12.718Z,15.08
2023-04-14T08:25:40.870Z,14.79
2023-04-14T08:28:08.853Z,14.63
2023-04-14T08:30:37.172Z,14.53
2023-04-14T08:33:05.264Z,14.47
2023-04-14T08:35:39.191Z,14.46
2023-04-14T08:38:09.320Z,14.49
2023-04-14T08:40:42.414Z,14.54
2023-04-14T08:43:13.245Z,14.69
2023-04-14T08:45:43.800Z,14.85
2023-04-14T08:48:12.185Z,14.99
2023-04-14T08:50:49.366Z,15.14
2023-04-14T08:53:21.085Z,15.23
2023-04-14T08:55:51.765Z,15.31
2023-04-14T08:58:21.152Z,15.38
2023-04-14T09:00:49.776Z,15.47
2023-04-14T09:03:18.817Z,15.58
2023-04-14T09:05:47.819Z,15.66
2023-04-14T09:08:16.727Z,15.72
2023-04-14T09:10:45.271Z,15.84
2023-04-14T09:13:15.422Z,15.96
2023-04-14T09:15:43.936Z,16.08
2023-04-14T09:18:12.314Z,16.19
2023-04-14T09:20:41.658Z,16.21
2023-04-14T09:23:10.690Z,16.17
2023-04-14T09:25:40.375Z,16.07
2023-04-14T09:28:08.800Z,15.98
2023-04-14T09:30:36.755Z,15.92
2023-04-14T09:33:08.436Z,16.00
2023-04-14T09:35:47.619Z,16.07
2023-04-14T09:38:30.843Z,16.10
2023-04-14T09:40:58.921Z,16.03
2023-04-14T09:43:29.433Z,15.96
2023-04-14T09:46:04.447Z,15.88
2023-04-14T09:48:32.587Z,15.86
2023-04-14T09:51:03.516Z,15.91
2023-04-14T09:53:33.759Z,15.97
2023-04-14T09:56:05.055Z,16.05
2023-04-14T09:58:35.539Z,16.07
2023-04-14T10:01:05.693Z,16.06
2023-04-14T10:03:38.997Z,16.05
2023-04-14T10:06:27.445Z,16.00
2023-04-14T10:08:56.288Z,15.95
2023-04-14T10:11:29.806Z,15.91
2023-04-14T10:14:06.991Z,15.81
2023-04-14T10:16:35.075Z,15.72
2023-04-14T10:19:03.911Z,15.69
2023-04-14T10:21:32.945Z,15.69
2023-04-14T10:24:01.753Z,15.66
2023-04-14T10:26:30.395Z,15.61
2023-04-14T10:28:59.329Z,15.58
2023-04-14T10:31:34.786Z,15.55
2023-04-14T10:34:13.750Z,15.53
2023-04-14T10:36:42.903Z,15.52
2023-04-14T10:39:12.109Z,15.54
2023-04-14T10:41:43.104Z,15.57
2023-04-14T10:44:31.629Z,15.59
2023-04-14T10:47:05.222Z,15.65
2023-04-14T10:49:38.674Z,15.72
2023-04-14T10:52:15.377Z,15.83
2023-04-14T10:55:01.459Z,15.91
2023-04-14T10:57:30.272Z,16.03
2023-04-14T10:59:59.871Z,16.14
2023-04-14T11:02:32.860Z,16.25
2023-04-14T11:05:11.634Z,16.36
2023-04-14T11:07:48.265Z,16.46
2023-04-14T11:10:22.270Z,16.57
2023-04-14T11:13:13.406Z,16.67
2023-04-14T11:16:01.839Z,16.78
2023-04-14T11:18:29.696Z,16.91
2023-04-14T11:21:08.802Z,17.06
2023-04-14T11:23:37.617Z,17.23
2023-04-14T11:26:07.456Z,17.34
2023-04-14T11:28:37.406Z,17.44
2023-04-14T11:31:08.387Z,17.58
2023-04-14T11:33:38.366Z,17.77
2023-04-14T11:36:07.701Z,18.05
2023-04-14T11:38:40.544Z,18.34
2023-04-14T11:41:09.578Z,18.57
2023-04-14T11:43:38.344Z,18.63
2023-04-14T11:46:08.366Z,18.54
2023-04-14T11:48:37.388Z,18.34
2023-04-14T11:51:05.637Z,18.12
2023-04-14T11:53:34.741Z,17.97
2023-04-14T11:56:02.888Z,17.83
2023-04-14T11:58:31.465Z,17.70
2023-04-14T12:00:59.708Z,17.61
2023-04-14T12:03:29.225Z,17.56
2023-04-14T12:06:01.763Z,17.54
2023-04-14T12:08:31.229Z,17.53
2023-04-14T12:11:13.305Z,17.57
2023-04-14T12:13:43.408Z,17.63
2023-04-14T12:16:12.074Z,17.78
2023-04-14T12:18:41.929Z,18.00
2023-04-14T12:21:11.950Z,18.19
2023-04-14T12:23:41.419Z,18.44
2023-04-14T12:26:12.050Z,18.70
2023-04-14T12:28:42.030Z,18.89
2023-04-14T12:31:10.868Z,18.92
2023-04-14T12:33:38.985Z,18.90
2023-04-14T12:36:16.030Z,18.92
2023-04-14T12:38:48.031Z,18.99
2023-04-14T12:41:23.476Z,19.07
2023-04-14T12:43:51.511Z,19.11
2023-04-14T12:46:25.948Z,19.16
2023-04-14T12:48:54.127Z,19.16
2023-04-14T12:51:22.696Z,19.12
2023-04-14T12:53:51.383Z,19.09
2023-04-14T12:56:22.620Z,19.08
2023-04-14T12:58:51.620Z,19.15
2023-04-14T13:01:22.224Z,19.19
2023-04-14T13:03:57.878Z,19.17
2023-04-14T13:06:25.971Z,19.03
2023-04-14T13:08:56.078Z,18.83
2023-04-14T13:11:24.615Z,18.65
2023-04-14T13:13:53.735Z,18.52
2023-04-14T13:16:22.590Z,18.41
2023-04-14T13:18:53.928Z,18.29
2023-04-14T13:21:21.893Z,18.14
2023-04-14T13:23:49.857Z,18.04
2023-04-14T13:26:17.782Z,17.95
2023-04-14T13:28:46.125Z,17.84
2023-04-14T13:31:17.263Z,17.73
2023-04-14T13:33:45.461Z,17.65
2023-04-14T13:36:13.424Z,17.61
2023-04-14T13:38:41.939Z,17.56
2023-04-14T13:41:10.037Z,17.53
2023-04-14T13:43:37.951Z,17.47
2023-04-14T13:46:06.443Z,17.41
2023-04-14T13:48:34.577Z,17.35
2023-04-14T14:27:53.022Z,16.35
2023-04-14T14:30:21.052Z,16.34
2023-04-14T14:32:48.951Z,16.36
2023-04-14T14:35:18.682Z,16.38
2023-04-14T14:37:47.539Z,16.43
2023-04-14T14:40:15.586Z,16.46
2023-04-14T14:42:44.509Z,16.48
2023-04-14T14:45:13.625Z,16.50
2023-04-14T14:47:41.656Z,16.52
2023-04-14T14:50:09.907Z,16.56
2023-04-14T14:52:38.065Z,16.59
2023-04-14T14:55:06.762Z,16.62
2023-04-14T14:57:34.720Z,16.60
2023-04-14T15:00:02.760Z,16.57
2023-04-14T15:02:30.882Z,16.52
2023-04-14T15:04:58.941Z,16.46
2023-04-14T15:07:27.091Z,16.39
2023-04-14T15:09:55.082Z,16.31
2023-04-14T15:12:23.065Z,16.23
2023-04-14T15:14:50.994Z,16.15
2023-04-14T15:17:18.948Z,16.08
2023-04-14T15:19:47.280Z,16.04
2023-04-14T15:22:16.519Z,15.99
2023-04-14T15:24:44.441Z,15.94
2023-04-14T15:27:12.446Z,15.88
2023-04-14T15:29:40.467Z,15.84
2023-04-14T15:32:08.337Z,15.80
2023-04-14T15:34:36.674Z,15.76
2023-04-14T15:37:04.628Z,15.71
2023-04-14T15:39:32.593Z,15.66
2023-04-14T15:42:01.507Z,15.63
2023-04-14T15:44:29.722Z,15.59
2023-04-14T15:46:59.648Z,15.57
2023-04-14T15:49:27.513Z,15.55
2023-04-14T15:51:57.353Z,15.52
2023-04-14T15:54:25.309Z,15.50
2023-04-14T15:56:53.202Z,15.47
2023-04-14T15:59:21.739Z,15.45
2023-04-14T16:01:49.708Z,15.43
2023-04-14T16:04:18.308Z,15.41
2023-04-14T16:06:47.754Z,15.40
2023-04-14T16:09:15.797Z,15.36
2023-04-14T16:11:46.589Z,15.35
2023-04-14T16:14:16.882Z,15.34
2023-04-14T16:16:47.271Z,15.32
2023-04-14T16:19:16.267Z,15.27
2023-04-14T16:21:44.205Z,15.20
2023-04-14T16:24:12.160Z,15.12
2023-04-14T16:26:40.152Z,15.00
2023-04-14T16:29:08.112Z,14.89
2023-04-14T16:31:36.069Z,14.77
2023-04-14T16:34:04.382Z,14.66
2023-04-14T16:36:33.534Z,14.57
2023-04-14T16:39:01.979Z,14.49
2023-04-14T16:41:30.650Z,14.41
2023-04-14T16:43:58.640Z,14.34
2023-04-14T16:46:26.837Z,14.28
2023-04-14T16:48:54.825Z,14.26
2023-04-14T16:51:23.128Z,14.23
2023-04-14T16:53:51.882Z,14.21
2023-04-14T16:56:20.920Z,14.21
2023-04-14T16:58:49.886Z,14.21
2023-04-14T17:01:17.954Z,14.18
2023-04-14T17:03:46.116Z,14.13
2023-04-14T17:06:14.223Z,14.05
2023-04-14T17:08:42.558Z,13.99
2023-04-14T17:11:10.764Z,13.91
2023-04-14T17:13:38.823Z,13.84
2023-04-14T17:16:09.328Z,13.77
2023-04-14T17:18:38.356Z,13.67
2023-04-14T17:21:07.305Z,13.60
2023-04-14T17:23:37.460Z,13.53
2023-04-14T17:26:06.031Z,13.46
2023-04-14T17:28:35.097Z,13.67
2023-04-14T17:31:10.870Z,15.36
2023-04-14T17:33:43.374Z,16.55
2023-04-14T17:36:15.040Z,15.94
2023-04-14T17:38:43.700Z,15.15
2023-04-14T17:41:12.934Z,14.63
2023-04-14T17:43:41.592Z,14.25
2023-04-14T17:46:09.493Z,13.98
2023-04-14T17:48:37.438Z,13.78
2023-04-14T17:51:06.271Z,13.59
2023-04-14T17:53:34.373Z,13.96
2023-04-14T17:56:02.502Z,15.83
2023-04-14T17:58:30.581Z,16.76
2023-04-14T18:00:59.300Z,15.93
2023-04-14T18:03:28.629Z,15.02
2023-04-14T18:05:56.965Z,14.37
2023-04-14T18:08:25.023Z,14.20
2023-04-14T18:10:53.162Z,15.47
2023-04-14T18:13:21.200Z,16.83
2023-04-14T18:15:49.948Z,17.15
2023-04-14T18:18:18.097Z,16.09
2023-04-14T18:20:50.264Z,15.11
2023-04-14T18:23:19.150Z,14.37
2023-04-14T18:28:18.332Z,15.64
2023-04-14T18:30:53.926Z,16.57
2023-04-14T18:33:22.840Z,15.77
2023-04-14T18:35:51.935Z,14.89
2023-04-14T18:38:20.226Z,14.24
2023-04-14T18:40:49.011Z,14.17
2023-04-14T18:43:17.919Z,15.67
2023-04-14T18:45:49.638Z,16.55
2023-04-14T18:48:17.651Z,15.85
2023-04-14T18:50:45.922Z,15.02
2023-04-14T18:53:14.957Z,14.39
2023-04-14T18:55:45.216Z,13.95
2023-04-14T18:58:13.913Z,14.18
2023-04-14T19:00:45.237Z,15.72
2023-04-14T19:03:13.670Z,16.71
2023-04-14T19:05:42.316Z,15.98
2023-04-14T19:08:10.320Z,15.08
2023-04-14T19:10:38.669Z,14.41
2023-04-14T19:13:06.877Z,13.93
2023-04-14T19:15:35.519Z,13.95
2023-04-14T19:18:03.788Z,15.36
2023-04-14T19:20:32.327Z,16.64
2023-04-14T19:23:00.460Z,16.57
2023-04-14T19:25:29.591Z,15.58
2023-04-14T19:27:58.632Z,14.78
2023-04-14T19:30:26.600Z,14.17
2023-04-14T19:32:54.801Z,14.02
2023-04-14T19:35:23.687Z,15.26
2023-04-14T19:37:55.772Z,16.48
2023-04-14T19:40:24.309Z,17.07
2023-04-14T19:42:55.356Z,16.12
2023-04-14T19:45:23.363Z,15.15
2023-04-14T19:47:51.998Z,14.47
2023-04-14T19:50:22.826Z,13.98
2023-04-14T19:52:51.437Z,13.64
2023-04-14T19:55:20.004Z,14.34
2023-04-14T19:57:48.382Z,15.72
2023-04-14T20:00:17.094Z,16.32
2023-04-14T20:02:45.236Z,15.56
2023-04-14T20:05:13.370Z,14.72
2023-04-14T20:07:41.309Z,14.08
2023-04-14T20:10:10.156Z,13.95
2023-04-14T20:12:38.274Z,15.14
2023-04-14T20:15:06.838Z,16.19
2023-04-14T20:17:35.189Z,15.80
2023-04-14T20:20:05.980Z,14.86
2023-04-14T20:22:34.308Z,14.18
2023-04-14T20:25:02.380Z,13.95
2023-04-14T20:27:30.358Z,15.06
2023-04-14T20:29:58.270Z,16.14
2023-04-14T20:32:26.226Z,16.45
2023-04-14T20:34:54.166Z,15.59
2023-04-14T20:37:22.932Z,14.67
2023-04-14T20:39:52.646Z,13.99
2023-04-14T20:42:20.469Z,13.89
2023-04-14T20:44:48.442Z,15.04
2023-04-14T20:47:17.128Z,16.15
2023-04-14T20:49:45.078Z,16.36
2023-04-14T20:52:13.009Z,15.46
2023-04-14T20:54:40.862Z,14.56
2023-04-14T20:57:09.929Z,13.89
2023-04-14T20:59:38.616Z,13.86
2023-04-14T21:02:07.452Z,15.12
2023-04-14T21:04:36.105Z,16.17
2023-04-14T21:07:04.846Z,16.21
2023-04-14T21:09:32.834Z,15.19
2023-04-14T21:12:16.010Z,14.38
2023-04-14T21:15:29.877Z,13.72
2023-04-14T21:17:37.282Z,13.82
2023-04-14T21:20:09.067Z,15.20
2023-04-14T21:22:47.430Z,16.17
2023-04-14T21:25:16.013Z,15.85
2023-04-14T21:27:44.384Z,14.78
2023-04-14T21:30:12.543Z,14.00
2023-04-14T21:32:40.476Z,13.78
2023-04-14T21:35:09.711Z,14.86
2023-04-14T21:37:42.167Z,15.94
2023-04-14T21:40:11.244Z,16.07
2023-04-14T21:42:39.146Z,15.13
2023-04-14T21:45:07.963Z,14.20
2023-04-14T21:47:36.158Z,13.89
2023-04-14T21:50:10.545Z,14.99
2023-04-14T21:52:38.600Z,16.05
2023-04-14T21:55:06.943Z,16.33
2023-04-14T21:57:44.535Z,15.30
2023-04-14T22:00:17.871Z,14.16
2023-04-14T22:02:48.195Z,14.42
2023-04-14T22:05:16.591Z,15.60
2023-04-14T22:07:45.617Z,16.28
2023-04-14T22:10:14.663Z,16.22
2023-04-14T22:12:43.721Z,15.12
2023-04-14T22:15:11.666Z,14.10
2023-04-14T22:17:39.619Z,13.72
2023-04-14T22:20:08.216Z,14.73
2023-04-14T22:22:36.245Z,15.69
2023-04-14T22:25:04.691Z,16.23
2023-04-14T22:27:34.116Z,16.35
2023-04-14T22:30:02.867Z,15.19
2023-04-14T22:32:32.329Z,14.06
2023-04-14T22:35:00.388Z,14.07
2023-04-14T22:37:28.221Z,15.05
2023-04-14T22:39:56.218Z,15.76
2023-04-14T22:42:24.150Z,16.17
2023-04-14T22:44:53.729Z,16.25
2023-04-14T22:47:21.713Z,15.06
2023-04-14T22:49:50.920Z,13.93
2023-04-14T22:52:19.716Z,13.58
2023-04-14T22:54:48.900Z,14.55
2023-04-14T22:57:17.279Z,15.40
2023-04-14T22:59:45.479Z,15.93
2023-04-14T23:02:13.490Z,16.35
2023-04-14T23:04:41.515Z,16.28
2023-04-14T23:07:09.511Z,15.20
2023-04-14T23:09:37.375Z,14.08
2023-04-14T23:12:05.474Z,13.59
2023-04-14T23:14:33.375Z,14.56
2023-04-14T23:17:02.350Z,15.44
2023-04-14T23:19:33.102Z,15.89
2023-04-14T23:22:02.407Z,16.11
2023-04-14T23:24:30.370Z,15.97
2023-04-14T23:26:58.360Z,14.85
2023-04-14T23:29:26.626Z,13.99
2023-04-14T23:31:54.750Z,14.59
2023-04-14T23:34:22.741Z,15.39
2023-04-14T23:36:50.717Z,15.87
2023-04-14T23:39:18.612Z,15.79
2023-04-14T23:41:46.459Z,14.71
2023-04-14T23:44:14.362Z,13.61
2023-04-14T23:46:42.352Z,13.20
2023-04-14T23:49:23.850Z,14.20
2023-04-14T23:51:58.221Z,15.22
2023-04-14T23:54:26.207Z,15.80
2023-04-14T23:56:54.052Z,15.86
2023-04-14T23:59:22.010Z,14.72
